Date,TemperatureHighF,TemperatureAvgF,TemperatureLowF,DewpointHighF,DewpointAvgF,DewpointLowF,HumidityHigh,HumidityAvg,HumidityLow,PressureMaxIn,PressureMinIn,WindSpeedMaxMPH,WindSpeedAvgMPH,GustSpeedMaxMPH,PrecipitationSumIn
2013-3-1,40.7,38.4,34.8,16.7,9.8,2.5,42,31,23,29.91,29.79,13,5,21,0.00
2013-3-2,36.7,32.4,27.3,8.9,3.2,-1.6,36,29,22,29.91,29.85,14,7,22,0.00
2013-3-3,36.0,29.0,23.7,6.1,-1.9,-11.6,36,26,19,29.97,29.87,17,9,25,0.00
2013-3-4,49.6,35.5,24.2,-0.5,-16.0,-30.4,27,13,3,30.09,29.96,15,6,24,0.00
2013-3-5,50.0,39.7,29.9,38.6,16.1,-7.4,100,47,12,30.07,29.63,10,1,14,0.70
2013-3-6,41.9,35.6,28.2,34.2,20.2,-43.4,100,58,33,30.08,29.60,23,7,38,0.08
2013-3-7,43.7,39.3,36.8,17.0,12.4,4.7,42,33,21,30.25,30.06,19,9,31,0.00
2013-3-8,49.4,41.5,34.2,12.5,4.3,-13.3,34,23,7,30.34,30.20,17,8,28,0.00
2013-3-9,68.5,46.6,27.2,20.7,4.7,-15.7,61,24,4,30.37,30.24,10,1,14,0.00
2013-3-10,70.1,49.5,28.4,29.4,7.3,-10.6,86,28,4,30.32,30.18,11,1,17,0.00
2013-3-11,59.9,50.9,46.0,43.1,14.6,-8.8,65,27,8,30.21,29.88,17,4,23,0.01
2013-3-12,56.1,50.1,41.5,54.1,32.1,1.1,100,59,13,30.01,29.73,19,6,30,0.81
2013-3-13,46.2,39.3,28.8,32.4,9.4,-6.4,91,30,11,30.14,29.96,23,7,32,0.00
2013-3-14,46.9,36.3,25.2,3.2,-8.4,-22.1,32,17,5,30.23,30.11,19,8,28,0.00
2013-3-15,65.4,48.5,27.8,11.4,-2.0,-12.2,28,13,6,30.16,29.85,12,4,20,0.00
2013-3-16,75.9,59.6,43.1,49.2,26.7,2.8,100,37,6,29.86,29.60,22,3,39,0.04
2013-3-17,59.0,44.8,34.1,49.6,40.4,31.1,100,88,42,30.20,29.85,12,3,20,0.85
2013-3-18,37.6,32.8,29.8,37.6,32.8,29.8,100,100,100,30.22,29.88,10,2,16,0.27
2013-3-19,59.2,45.9,31.3,41.8,-1.1,-39.2,100,35,2,30.04,29.78,23,8,34,0.00
2013-3-20,52.0,42.8,28.2,13.3,-18.8,-35.4,33,8,2,30.08,29.78,18,4,26,0.00
2013-3-21,40.2,29.4,23.3,16.0,-5.4,-23.7,41,22,9,29.97,29.77,17,8,28,0.00
2013-3-22,50.0,34.0,18.2,1.6,-10.4,-24.8,37,17,4,30.04,29.93,15,3,21,0.00
2013-3-23,59.4,42.8,27.2,13.2,-5.1,-22.2,44,18,4,30.33,29.90,11,1,15,0.00
2013-3-24,46.6,35.7,29.1,35.9,22.3,-7.3,100,70,11,29.95,29.59,12,1,18,0.17
2013-3-25,42.2,34.5,27.7,37.7,20.7,1.8,100,66,20,29.77,29.52,18,5,31,0.64
2013-3-26,44.7,39.5,34.2,15.0,10.8,-1.0,41,31,16,30.11,29.77,17,8,28,0.00
2013-3-27,44.6,37.9,30.4,20.3,9.6,0.1,58,32,17,30.22,30.10,14,6,23,0.00
2013-3-28,48.9,42.4,33.9,14.8,1.8,-10.8,42,20,8,30.28,30.19,18,7,28,0.01
2013-3-29,56.0,43.4,27.8,20.9,1.2,-21.7,67,25,4,30.33,30.17,14,3,20,0.00
2013-3-30,68.9,48.9,30.6,26.4,5.7,-13.0,68,25,4,30.26,30.07,14,1,18,0.00
2013-3-31,61.5,51.2,44.2,50.1,32.9,-0.6,100,59,12,30.08,29.79,7,1,12,0.33